This is the latest recevied weather packets stored in our database for station/object W4EDL-13. If no packets are shown the sender has not sent any weather packets the latest 10 day(s).
| Time | Temp. | Humidity | Pressure | Rain* | Wind** | Luminosity | Snow |
|---|---|---|---|---|---|---|---|
| 1777388751 | 26.11° C | 70% | 1011 hPa | - | - | - | - |
| 1777388745 | 26.11° C | 70% | 1011 hPa | - | - | - | - |
| 1777388150 | 26.67° C | 67% | 1011 hPa | - | - | - | - |
| 1777388144 | 26.67° C | 67% | 1011 hPa | - | - | - | - |
| 1777387550 | 28.33° C | 66% | 1011 hPa | - | - | - | - |
| 1777387543 | 28.33° C | 66% | 1011 hPa | - | - | - | - |
| 1777386949 | 26.11° C | 71% | 1011 hPa | - | - | - | - |
| 1777386943 | 26.11° C | 71% | 1011 hPa | - | - | - | - |
| 1777386349 | 25° C | 78% | 1011 hPa | - | - | - | - |
| 1777386342 | 25° C | 79% | 1011 hPa | - | - | - | - |
| 1777385749 | 25° C | 76% | 1011 hPa | - | - | - | - |
| 1777385742 | 25° C | 76% | 1011 hPa | - | - | - | - |
| 1777385148 | 26.11° C | 73% | 1010.7 hPa | - | - | - | - |
| 1777385141 | 26.11° C | 73% | 1010.7 hPa | - | - | - | - |
| 1777384548 | 26.67° C | 70% | 1010.3 hPa | - | - | - | - |
| 1777384541 | 26.67° C | 70% | 1010.3 hPa | - | - | - | - |
| 1777383947 | 25° C | 73% | 1010.7 hPa | - | - | - | - |
| 1777383940 | 25° C | 73% | 1010.7 hPa | - | - | - | - |
| 1777383346 | 25.56° C | 72% | 1010.3 hPa | - | - | - | - |
| 1777383339 | 25.56° C | 72% | 1010.3 hPa | - | - | - | - |
| 1777382746 | 26.67° C | 72% | 1010.3 hPa | - | - | - | - |
| 1777382739 | 26.11° C | 73% | 1010.3 hPa | - | - | - | - |
| 1777382145 | 26.11° C | 75% | 1010.3 hPa | - | - | - | - |
| 1777382138 | 26.11° C | 75% | 1010.3 hPa | - | - | - | - |
| 1777381545 | 25.56° C | 77% | 1010.3 hPa | - | - | - | - |
* Rain since midnight (hover to see other rain measurements)
** Current wind speed in m/s (hover to see current wind gust speed)